Time;durP1;ratioP1;P1;durP2;ratioP2;P2;SDS_P1;SDS_P2;PMS_P1;PMS_P2;Temp;Humidity;BMP_temperature;BMP_pressure;BME280_temperature;BME280_humidity;BME280_pressure;Samples;Min_cycle;Max_cycle;Signal;HPM_P1;HPM_P2
2023/04/22 00:00:07;;;;;;;18.80;13.13;;;9.10;99.90;;;;;;5042431;28;20538;-83
2023/04/22 00:02:37;;;;;;;30.07;18.13;;;9.10;99.90;;;;;;5039632;28;20457;-83
2023/04/22 00:05:04;;;;;;;10.83;8.30;;;9.10;99.90;;;;;;5040892;28;20497;-83
2023/04/22 00:07:31;;;;;;;11.50;8.40;;;9.00;99.90;;;;;;5041232;28;20838;-83
2023/04/22 00:09:58;;;;;;;10.07;7.70;;;9.00;99.90;;;;;;5037896;28;20459;-84
2023/04/22 00:12:25;;;;;;;9.80;7.60;;;9.00;99.90;;;;;;5040681;28;20834;-82
2023/04/22 00:14:52;;;;;;;11.30;8.17;;;9.00;99.90;;;;;;5041321;28;20537;-84
2023/04/22 00:17:19;;;;;;;10.20;7.43;;;9.00;99.90;;;;;;5050997;28;20481;-84
2023/04/22 00:19:47;;;;;;;8.53;6.97;;;9.00;99.90;;;;;;5039722;28;20921;-84
2023/04/22 00:22:13;;;;;;;7.80;6.60;;;9.00;99.90;;;;;;5036647;28;20527;-84
2023/04/22 00:24:40;;;;;;;8.77;6.47;;;8.90;99.90;;;;;;5039019;28;20452;-84
2023/04/22 00:27:07;;;;;;;8.63;6.50;;;8.90;99.90;;;;;;5024221;28;20906;-84
2023/04/22 00:29:34;;;;;;;7.27;5.77;;;8.90;99.90;;;;;;5039568;28;20452;-84
2023/04/22 00:32:01;;;;;;;8.63;6.77;;;8.90;99.90;;;;;;5039644;28;20459;-83
2023/04/22 00:34:27;;;;;;;7.80;6.97;;;8.90;99.90;;;;;;5035733;28;20459;-83
2023/04/22 00:36:56;;;;;;;8.40;6.63;;;8.80;99.90;;;;;;5039447;28;21015;-84
2023/04/22 00:39:22;;;;;;;8.17;6.77;;;8.80;99.90;;;;;;5035068;28;20461;-84
2023/04/22 00:41:50;;;;;;;8.60;6.37;;;8.80;99.90;;;;;;5039270;28;20447;-82
2023/04/22 00:44:18;;;;;;;10.10;6.87;;;8.80;99.90;;;;;;5046691;28;20443;-85
2023/04/22 00:46:45;;;;;;;6.70;6.00;;;8.90;99.90;;;;;;5043647;28;20474;-84
2023/04/22 00:49:12;;;;;;;8.23;6.33;;;8.90;99.90;;;;;;5044855;28;20461;-84
2023/04/22 00:51:38;;;;;;;8.90;6.77;;;8.90;99.90;;;;;;5039031;28;20848;-84
2023/04/22 00:54:07;;;;;;;7.00;6.10;;;9.00;99.90;;;;;;5028413;28;20466;-84
2023/04/22 00:56:36;;;;;;;8.00;7.17;;;9.00;99.90;;;;;;5038003;28;20522;-84
2023/04/22 00:59:03;;;;;;;7.70;6.30;;;9.00;99.90;;;;;;5041352;28;20459;-84
2023/04/22 01:01:30;;;;;;;7.30;6.50;;;9.10;99.90;;;;;;5039311;28;20522;-83
2023/04/22 01:03:59;;;;;;;9.13;7.07;;;9.10;99.90;;;;;;5035873;28;20542;-84
2023/04/22 01:06:30;;;;;;;8.03;6.40;;;9.10;99.90;;;;;;5038304;28;20475;-83
2023/04/22 01:08:57;;;;;;;9.07;7.70;;;9.10;99.90;;;;;;5035791;28;20456;-83
2023/04/22 01:11:25;;;;;;;8.50;7.13;;;9.10;99.90;;;;;;5037087;28;20466;-84
2023/04/22 01:13:52;;;;;;;7.43;6.47;;;9.10;99.90;;;;;;5028648;28;20460;-83
2023/04/22 01:16:20;;;;;;;12.40;7.17;;;9.20;99.90;;;;;;5034324;28;20996;-83
2023/04/22 01:18:46;;;;;;;6.67;5.50;;;9.20;99.90;;;;;;5037579;28;20455;-83
2023/04/22 01:21:13;;;;;;;7.93;6.53;;;9.20;99.90;;;;;;5032582;28;20967;-81
2023/04/22 01:23:42;;;;;;;7.83;6.00;;;9.20;99.90;;;;;;5042648;28;20454;-82
2023/04/22 01:26:09;;;;;;;9.40;7.20;;;9.30;99.90;;;;;;5038324;28;20853;-83
2023/04/22 01:28:36;;;;;;;10.37;7.80;;;9.30;99.90;;;;;;5038187;28;20923;-83
2023/04/22 01:31:03;;;;;;;9.13;7.80;;;9.40;99.90;;;;;;5038147;28;20457;-83
2023/04/22 01:33:30;;;;;;;11.77;9.00;;;9.40;99.90;;;;;;5034875;28;20456;-83
2023/04/22 01:35:57;;;;;;;9.40;7.47;;;9.40;99.90;;;;;;5037651;28;20507;-83
2023/04/22 01:38:24;;;;;;;9.83;7.83;;;9.40;99.90;;;;;;5032196;28;20827;-83
2023/04/22 01:40:52;;;;;;;14.03;8.00;;;9.30;99.90;;;;;;5046553;28;20458;-83
2023/04/22 01:43:19;;;;;;;8.97;8.10;;;9.30;99.90;;;;;;5036884;28;21051;-83
2023/04/22 01:45:46;;;;;;;10.70;6.97;;;9.40;99.90;;;;;;5033580;28;20987;-83
2023/04/22 01:48:13;;;;;;;11.00;8.00;;;9.40;99.90;;;;;;5037189;28;20462;-81
2023/04/22 01:50:40;;;;;;;9.30;7.60;;;9.40;99.90;;;;;;5032840;28;20461;-83
2023/04/22 01:53:08;;;;;;;8.50;6.90;;;9.40;99.90;;;;;;5034902;28;20456;-83
2023/04/22 01:55:36;;;;;;;8.37;7.47;;;9.50;99.90;;;;;;5034481;28;20577;-81
2023/04/22 01:58:04;;;;;;;9.83;7.70;;;9.50;99.90;;;;;;5034691;28;20482;-83
2023/04/22 02:00:31;;;;;;;10.17;7.83;;;9.50;99.90;;;;;;5035241;28;20519;-81
2023/04/22 02:02:58;;;;;;;10.70;8.13;;;9.50;99.90;;;;;;5033655;28;20457;-84
2023/04/22 02:05:24;;;;;;;8.87;7.30;;;9.50;99.90;;;;;;5036692;28;20539;-82
2023/04/22 02:07:52;;;;;;;9.30;7.50;;;9.50;99.90;;;;;;5034692;28;20460;-82
2023/04/22 02:10:19;;;;;;;8.07;7.23;;;9.50;99.90;;;;;;5036817;28;20451;-83
2023/04/22 02:12:46;;;;;;;7.80;6.93;;;9.50;99.90;;;;;;5034876;28;20991;-83
2023/04/22 02:15:14;;;;;;;9.50;7.70;;;9.60;99.90;;;;;;5047161;28;20455;-82
2023/04/22 02:17:42;;;;;;;7.90;7.10;;;9.60;99.90;;;;;;5041100;28;20485;-83
2023/04/22 02:20:10;;;;;;;11.83;7.60;;;9.60;99.90;;;;;;5033298;28;20467;-83
2023/04/22 02:22:37;;;;;;;8.93;7.50;;;9.60;99.90;;;;;;5034910;28;20566;-83
2023/04/22 02:25:05;;;;;;;8.63;7.70;;;9.60;99.90;;;;;;5036117;28;20457;-84
2023/04/22 02:27:32;;;;;;;7.13;6.10;;;9.70;99.90;;;;;;5028818;28;20491;-83
2023/04/22 02:29:59;;;;;;;6.90;6.00;;;9.70;99.90;;;;;;5045972;28;20483;-83
2023/04/22 02:32:27;;;;;;;7.83;6.23;;;9.70;99.90;;;;;;5041250;28;20468;-84
2023/04/22 02:34:54;;;;;;;10.40;6.00;;;9.70;99.90;;;;;;5042552;28;20479;-84
2023/04/22 02:37:21;;;;;;;10.63;7.43;;;9.70;99.90;;;;;;5040591;28;20497;-83
2023/04/22 02:39:48;;;;;;;6.90;5.80;;;9.70;99.90;;;;;;5037360;28;20456;-83
2023/04/22 02:42:15;;;;;;;9.30;6.00;;;9.80;99.90;;;;;;5035619;28;20968;-84
2023/04/22 02:44:42;;;;;;;6.83;5.23;;;9.80;99.90;;;;;;5034038;28;20494;-83
2023/04/22 02:47:09;;;;;;;8.57;6.30;;;9.80;99.90;;;;;;5035321;28;21019;-83
2023/04/22 02:49:37;;;;;;;7.10;5.20;;;9.80;99.90;;;;;;5032160;28;20466;-83
2023/04/22 02:52:05;;;;;;;8.27;5.50;;;9.80;99.90;;;;;;5033912;28;20455;-82
2023/04/22 02:54:31;;;;;;;6.17;5.30;;;9.90;99.90;;;;;;5035110;28;20456;-82
2023/04/22 02:56:58;;;;;;;5.90;5.27;;;9.90;99.90;;;;;;5030142;28;20496;-81
2023/04/22 02:59:25;;;;;;;8.33;6.07;;;9.90;99.90;;;;;;5035070;28;20456;-79
2023/04/22 03:01:52;;;;;;;7.97;5.40;;;9.90;99.90;;;;;;5031005;28;20456;-81
2023/04/22 03:04:20;;;;;;;6.27;4.67;;;9.90;99.90;;;;;;5052131;22;20507;-81
2023/04/22 03:06:49;;;;;;;6.10;5.17;;;9.90;99.90;;;;;;5030881;28;20459;-79
2023/04/22 03:09:16;;;;;;;4.90;4.40;;;9.90;99.90;;;;;;5032540;28;20468;-80
2023/04/22 03:11:43;;;;;;;7.40;4.50;;;9.90;99.90;;;;;;5033514;28;20510;-81
2023/04/22 03:14:09;;;;;;;5.53;4.57;;;9.90;99.90;;;;;;5015655;28;20488;-80
2023/04/22 03:16:36;;;;;;;5.77;4.20;;;9.90;99.90;;;;;;5018782;28;20485;-81
2023/04/22 03:19:03;;;;;;;5.37;4.77;;;9.90;99.90;;;;;;5017655;28;20537;-81
2023/04/22 03:21:31;;;;;;;4.87;4.30;;;9.90;99.90;;;;;;5017132;28;20543;-81
2023/04/22 03:23:59;;;;;;;5.53;4.87;;;9.90;99.90;;;;;;5034322;28;20835;-81
2023/04/22 03:26:26;;;;;;;5.30;4.60;;;10.00;99.90;;;;;;5021927;28;20453;-81
2023/04/22 03:28:52;;;;;;;6.33;4.80;;;10.00;99.90;;;;;;5018186;28;20459;-81
2023/04/22 03:31:19;;;;;;;5.10;4.33;;;10.00;99.90;;;;;;5015695;28;20949;-80
2023/04/22 03:33:46;;;;;;;9.17;5.30;;;10.00;99.90;;;;;;5018335;28;20481;-82
2023/04/22 03:36:13;;;;;;;6.47;5.10;;;10.10;99.90;;;;;;5018580;28;20483;-81
2023/04/22 03:38:40;;;;;;;5.30;4.80;;;10.10;99.90;;;;;;5023263;28;20459;-80
2023/04/22 03:41:08;;;;;;;6.13;4.77;;;10.10;99.90;;;;;;5018546;28;20460;-82
2023/04/22 03:43:34;;;;;;;6.17;5.00;;;10.10;99.90;;;;;;5019993;28;20861;-81
2023/04/22 03:46:01;;;;;;;5.80;5.13;;;10.10;99.90;;;;;;4999043;28;20541;-81
2023/04/22 03:48:33;;;;;;;4.70;4.20;;;10.10;99.90;;;;;;5014647;28;20461;-79
2023/04/22 03:51:00;;;;;;;9.93;5.27;;;10.10;99.90;;;;;;5017615;28;20489;-81
2023/04/22 03:53:27;;;;;;;7.67;5.43;;;10.10;99.90;;;;;;5018382;28;20476;-82
2023/04/22 03:55:54;;;;;;;6.20;4.80;;;10.10;99.90;;;;;;5014116;28;20976;-80
2023/04/22 03:58:22;;;;;;;5.50;4.93;;;10.10;99.90;;;;;;5017981;28;20480;-82
2023/04/22 04:00:49;;;;;;;8.03;5.17;;;10.10;99.90;;;;;;5014588;28;20461;-81
2023/04/22 04:03:15;;;;;;;5.87;5.23;;;10.10;99.90;;;;;;5020973;28;20520;-81
2023/04/22 04:05:42;;;;;;;6.17;5.57;;;10.10;99.90;;;;;;5018935;28;20459;-81
2023/04/22 04:08:09;;;;;;;5.87;5.30;;;10.10;99.90;;;;;;5023676;28;20467;-82
2023/04/22 04:10:37;;;;;;;4.80;4.27;;;10.10;99.90;;;;;;5016774;28;20647;-80
2023/04/22 04:13:03;;;;;;;8.30;5.67;;;10.00;99.90;;;;;;5018517;28;20479;-81
2023/04/22 04:15:34;;;;;;;6.53;4.80;;;10.00;99.90;;;;;;5037992;28;20456;-81
2023/04/22 04:18:01;;;;;;;6.67;5.10;;;10.10;99.90;;;;;;5026839;28;20475;-79
2023/04/22 04:20:28;;;;;;;5.57;4.90;;;10.10;99.90;;;;;;5020113;28;20877;-79
2023/04/22 04:22:55;;;;;;;5.97;5.37;;;10.10;99.90;;;;;;5024354;28;20483;-80
2023/04/22 04:25:22;;;;;;;5.80;5.10;;;10.10;99.90;;;;;;5015328;28;20952;-81
2023/04/22 04:27:50;;;;;;;5.37;4.87;;;10.10;99.90;;;;;;5024155;28;20458;-80
2023/04/22 04:30:18;;;;;;;6.50;4.90;;;10.10;99.90;;;;;;5031185;28;20449;-79
2023/04/22 04:32:47;;;;;;;6.50;4.90;;;10.10;99.90;;;;;;5030270;28;20464;-81
2023/04/22 04:35:13;;;;;;;7.20;5.50;;;10.10;99.90;;;;;;5038301;28;20467;-79
2023/04/22 04:37:42;;;;;;;5.00;4.50;;;10.10;99.90;;;;;;5015193;28;20495;-81
2023/04/22 04:40:11;;;;;;;6.43;5.30;;;10.10;99.90;;;;;;5018642;28;20446;-81
2023/04/22 04:42:37;;;;;;;5.80;4.60;;;10.10;99.90;;;;;;5013719;28;20458;-81
2023/04/22 04:45:05;;;;;;;6.30;4.07;;;10.10;99.90;;;;;;5018282;28;20467;-81
2023/04/22 04:47:32;;;;;;;5.80;4.80;;;10.10;99.90;;;;;;5020699;28;20448;-81
2023/04/22 04:50:03;;;;;;;7.00;5.37;;;10.10;99.90;;;;;;5025641;28;20460;-81
2023/04/22 04:52:30;;;;;;;4.67;4.10;;;10.10;99.90;;;;;;5017748;28;20997;-81
2023/04/22 04:54:57;;;;;;;6.93;4.87;;;10.20;99.90;;;;;;5014623;28;20485;-81
2023/04/22 04:57:24;;;;;;;6.70;4.80;;;10.20;99.90;;;;;;5015448;28;20494;-81
2023/04/22 04:59:50;;;;;;;5.93;5.33;;;10.30;99.90;;;;;;5011457;28;20457;-80
2023/04/22 05:02:17;;;;;;;4.70;4.30;;;10.20;99.90;;;;;;5016716;28;20535;-80
2023/04/22 05:04:44;;;;;;;6.47;5.07;;;10.30;99.90;;;;;;5020499;28;20508;-80
2023/04/22 05:07:12;;;;;;;5.80;4.70;;;10.40;99.90;;;;;;5018464;28;21216;-80
2023/04/22 05:09:39;;;;;;;5.00;4.50;;;10.40;99.90;;;;;;5016296;28;20468;-80
2023/04/22 05:12:06;;;;;;;4.90;4.13;;;10.50;99.90;;;;;;5013996;28;20963;-80
2023/04/22 05:14:33;;;;;;;6.43;4.57;;;10.50;99.90;;;;;;5016948;28;20470;-82
2023/04/22 05:16:59;;;;;;;5.27;4.30;;;10.50;99.90;;;;;;5012526;28;20495;-83
2023/04/22 05:19:26;;;;;;;5.10;4.10;;;10.60;99.90;;;;;;5019146;28;20459;-83
2023/04/22 05:21:53;;;;;;;5.63;3.87;;;10.60;99.90;;;;;;5015824;28;20468;-80
2023/04/22 05:24:21;;;;;;;5.90;4.80;;;10.60;99.90;;;;;;5025213;28;20529;-82
2023/04/22 05:26:48;;;;;;;7.70;4.33;;;10.70;99.90;;;;;;5018758;28;20509;-83
2023/04/22 05:29:15;;;;;;;5.90;4.40;;;10.70;99.90;;;;;;5012577;28;20468;-81
2023/04/22 05:31:42;;;;;;;5.57;4.63;;;10.80;99.90;;;;;;5017133;28;20461;-82
2023/04/22 05:34:10;;;;;;;4.90;4.00;;;10.80;99.90;;;;;;5013751;28;20490;-82
2023/04/22 05:36:37;;;;;;;6.10;4.50;;;10.90;99.90;;;;;;5017165;28;20502;-81
2023/04/22 05:39:04;;;;;;;5.57;4.13;;;11.00;99.90;;;;;;5023301;28;20460;-82
2023/04/22 05:41:33;;;;;;;6.63;4.43;;;11.00;99.90;;;;;;5012306;28;20456;-83
2023/04/22 05:43:59;;;;;;;4.80;4.20;;;11.10;99.90;;;;;;5033407;28;20543;-82
2023/04/22 05:46:26;;;;;;;4.73;4.30;;;11.10;99.90;;;;;;5020014;28;20828;-83
2023/04/22 05:48:54;;;;;;;5.60;4.60;;;11.20;99.90;;;;;;5027204;28;20551;-82
2023/04/22 05:51:22;;;;;;;4.20;3.80;;;11.20;99.90;;;;;;5012178;28;20844;-85
2023/04/22 05:53:49;;;;;;;4.87;4.20;;;11.30;99.90;;;;;;5027091;28;20513;-84
2023/04/22 05:56:16;;;;;;;6.13;4.30;;;11.40;99.90;;;;;;5018913;28;20537;-84
2023/04/22 05:58:44;;;;;;;4.50;4.10;;;11.50;99.90;;;;;;5014272;28;20518;-83
2023/04/22 06:01:11;;;;;;;4.70;3.93;;;11.50;99.90;;;;;;5019905;28;20459;-83
2023/04/22 06:03:38;;;;;;;4.43;4.00;;;11.60;99.90;;;;;;5021067;28;20500;-83
2023/04/22 06:06:06;;;;;;;5.23;4.47;;;11.70;99.90;;;;;;5029547;28;20524;-84
2023/04/22 06:08:32;;;;;;;5.13;4.43;;;11.80;99.90;;;;;;5016633;28;20457;-84
2023/04/22 06:10:59;;;;;;;5.00;4.50;;;11.90;99.90;;;;;;5036511;28;20517;-84
2023/04/22 06:13:26;;;;;;;4.17;3.57;;;12.00;99.90;;;;;;5028696;28;20482;-85
2023/04/22 06:15:55;;;;;;;5.80;4.63;;;12.10;99.90;;;;;;5015734;28;20467;-84
2023/04/22 06:18:22;;;;;;;5.40;4.40;;;12.30;99.90;;;;;;5026859;28;20477;-84
2023/04/22 06:20:49;;;;;;;4.37;3.97;;;12.40;99.90;;;;;;5024888;28;21471;-83
2023/04/22 06:23:16;;;;;;;5.20;4.27;;;12.50;99.90;;;;;;5019798;28;20484;-84
2023/04/22 06:25:43;;;;;;;4.33;3.70;;;12.70;99.90;;;;;;5018341;28;20522;-83
2023/04/22 06:28:09;;;;;;;4.50;4.10;;;12.90;99.90;;;;;;5042225;28;20445;-84
2023/04/22 06:30:36;;;;;;;5.07;4.17;;;13.00;99.90;;;;;;5032012;28;20481;-83
2023/04/22 06:33:05;;;;;;;4.63;4.23;;;13.20;99.90;;;;;;5036968;28;20494;-83
2023/04/22 06:35:32;;;;;;;5.30;4.37;;;13.30;99.90;;;;;;5033760;28;20481;-84
2023/04/22 06:37:58;;;;;;;4.30;3.80;;;13.50;99.90;;;;;;5018011;28;20498;-85
2023/04/22 06:40:25;;;;;;;6.30;3.83;;;13.60;99.90;;;;;;5019030;28;20900;-84
2023/04/22 06:42:52;;;;;;;4.00;3.60;;;13.70;99.90;;;;;;5021196;28;20557;-85
2023/04/22 06:45:19;;;;;;;5.00;3.80;;;13.80;99.90;;;;;;5019368;28;20497;-84
2023/04/22 06:47:46;;;;;;;4.53;4.10;;;13.90;99.90;;;;;;5018761;28;20481;-84
2023/04/22 06:50:14;;;;;;;3.90;3.50;;;13.80;99.90;;;;;;5026760;28;20461;-83
2023/04/22 06:52:41;;;;;;;4.80;3.50;;;13.80;99.90;;;;;;5023760;28;20870;-83
2023/04/22 06:55:11;;;;;;;5.93;3.90;;;13.80;99.90;;;;;;5012952;28;20460;-82
2023/04/22 06:57:38;;;;;;;4.37;3.97;;;13.80;99.90;;;;;;5015225;28;20492;-82
2023/04/22 07:00:07;;;;;;;4.67;3.90;;;13.80;99.90;;;;;;5010667;28;20457;-82
2023/04/22 07:02:34;;;;;;;4.60;3.70;;;13.90;99.90;;;;;;5017864;28;20586;-83
2023/04/22 07:05:04;;;;;;;6.10;5.60;;;13.90;99.90;;;;;;5012693;28;20443;-82
2023/04/22 07:07:32;;;;;;;4.40;3.80;;;13.90;99.90;;;;;;5014221;28;20541;-85
2023/04/22 07:09:59;;;;;;;3.77;3.40;;;13.90;99.90;;;;;;5017403;28;20821;-83
2023/04/22 07:12:26;;;;;;;4.10;3.47;;;13.80;99.90;;;;;;5008291;28;20446;-84
2023/04/22 07:14:53;;;;;;;3.03;2.73;;;13.70;99.90;;;;;;5012673;28;20933;-82
2023/04/22 07:17:21;;;;;;;3.30;3.00;;;13.60;99.90;;;;;;5008835;28;20499;-83
2023/04/22 07:19:48;;;;;;;4.67;3.27;;;13.70;99.90;;;;;;5011452;28;20526;-82
2023/04/22 07:22:14;;;;;;;3.80;3.00;;;13.70;99.90;;;;;;5009174;28;21691;-80
2023/04/22 07:24:43;;;;;;;4.40;2.57;;;13.90;99.90;;;;;;5018846;28;21040;-82
2023/04/22 07:27:09;;;;;;;3.47;2.23;;;14.10;99.90;;;;;;5014943;28;20915;-83
2023/04/22 07:29:36;;;;;;;2.57;2.17;;;14.30;1.00;;;;;;5013200;28;20442;-82
2023/04/22 07:32:03;;;;;;;2.50;2.20;;;14.80;4.60;;;;;;5034448;28;20450;-82
2023/04/22 07:34:30;;;;;;;4.23;2.67;;;15.00;1.00;;;;;;5025463;28;20482;-82
2023/04/22 07:37:00;;;;;;;3.50;2.10;;;15.10;1.00;;;;;;5016704;28;20960;-82
2023/04/22 07:39:27;;;;;;;2.67;1.70;;;15.50;1.00;;;;;;5016023;28;21013;-84
2023/04/22 07:41:56;;;;;;;4.63;2.97;;;15.80;1.00;;;;;;5029489;28;20525;-82
2023/04/22 07:44:23;;;;;;;2.90;1.90;;;16.10;99.90;;;;;;5036278;28;20994;-85
2023/04/22 07:46:50;;;;;;;3.27;2.10;;;16.20;99.90;;;;;;5021768;28;20525;-85
2023/04/22 07:49:17;;;;;;;4.33;1.83;;;16.30;1.00;;;;;;5026953;28;20484;-85
2023/04/22 07:51:44;;;;;;;4.50;2.00;;;16.50;99.90;;;;;;5024734;28;20448;-86
2023/04/22 07:54:11;;;;;;;3.03;1.63;;;16.80;99.90;;;;;;5031659;28;20485;-86
2023/04/22 07:56:37;;;;;;;2.60;1.73;;;17.30;1.00;;;;;;5025337;28;20525;-83
2023/04/22 07:59:06;;;;;;;2.70;1.90;;;17.80;1.00;;;;;;5015195;28;20477;-83
2023/04/22 08:01:32;;;;;;;3.40;2.10;;;18.00;1.00;;;;;;5018564;28;20458;-83
2023/04/22 08:03:59;;;;;;;3.03;1.83;;;18.20;99.90;;;;;;5009551;28;20487;-83
2023/04/22 08:06:26;;;;;;;2.50;1.93;;;18.40;1.00;;;;;;5016626;28;20453;-84
2023/04/22 08:08:56;;;;;;;3.20;2.00;;;18.50;99.90;;;;;;5010660;28;20493;-83
2023/04/22 08:11:23;;;;;;;3.50;1.70;;;18.70;1.00;;;;;;5015654;28;20467;-84
2023/04/22 08:13:50;;;;;;;3.53;2.33;;;18.60;17.10;;;;;;5015617;28;20524;-84
2023/04/22 08:16:19;;;;;;;5.07;2.40;;;18.40;7.10;;;;;;5018179;28;20906;-84
2023/04/22 08:18:46;;;;;;;3.17;2.00;;;18.40;99.90;;;;;;5033211;28;20497;-83
2023/04/22 08:21:13;;;;;;;2.47;1.67;;;18.70;1.00;;;;;;5013362;28;20469;-83
2023/04/22 08:23:40;;;;;;;3.30;2.20;;;19.00;99.90;;;;;;5032788;28;20484;-84
2023/04/22 08:26:07;;;;;;;2.87;1.57;;;19.60;1.00;;;;;;5011579;28;20468;-84
2023/04/22 08:28:34;;;;;;;3.83;1.60;;;20.50;1.00;;;;;;5014428;28;20453;-84
2023/04/22 08:31:01;;;;;;;4.53;1.53;;;21.50;1.00;;;;;;5014530;28;20983;-82
2023/04/22 08:33:29;;;;;;;2.30;1.47;;;22.20;1.00;;;;;;5013703;28;20485;-86
2023/04/22 08:35:56;;;;;;;4.40;1.80;;;22.20;1.00;;;;;;5014758;28;20484;-83
2023/04/22 08:38:23;;;;;;;2.93;1.40;;;23.00;1.00;;;;;;5013431;28;21043;-85
2023/04/22 08:40:50;;;;;;;2.50;1.47;;;23.80;1.00;;;;;;5014326;28;20479;-83
2023/04/22 08:43:17;;;;;;;4.13;1.40;;;24.70;1.00;;;;;;5008440;28;20560;-85
2023/04/22 08:45:45;;;;;;;2.37;1.50;;;24.90;1.00;;;;;;5015078;28;20461;-85
2023/04/22 08:48:13;;;;;;;2.57;1.77;;;25.40;1.00;;;;;;5015263;28;20449;-84
2023/04/22 08:50:42;;;;;;;2.27;1.63;;;24.70;99.90;;;;;;5006901;28;20553;-85
2023/04/22 08:53:08;;;;;;;2.37;1.43;;;24.80;99.90;;;;;;5016301;28;20496;-86
2023/04/22 08:55:36;;;;;;;5.10;1.40;;;25.10;99.90;;;;;;5010307;28;21032;-85
2023/04/22 08:58:04;;;;;;;3.13;1.67;;;24.80;99.90;;;;;;5014545;28;20485;-84
2023/04/22 09:00:33;;;;;;;47.20;26.67;;;24.90;99.90;;;;;;5012672;28;20453;-84
2023/04/22 09:05:36;;;;;;;2.00;1.30;;;25.50;99.90;;;;;;5040769;22;20551;-77
2023/04/22 09:08:04;;;;;;;3.30;1.30;;;26.20;99.90;;;;;;5024601;28;20454;-78
2023/04/22 09:10:31;;;;;;;3.40;1.60;;;27.60;99.90;;;;;;5032032;28;20455;-79
2023/04/22 09:12:59;;;;;;;2.17;1.53;;;27.70;99.90;;;;;;5027340;28;20905;-78
2023/04/22 09:15:26;;;;;;;3.20;1.23;;;27.60;99.90;;;;;;5033830;28;20537;-79
2023/04/22 09:17:53;;;;;;;2.20;1.47;;;26.90;99.90;;;;;;5016267;28;20552;-78
2023/04/22 09:20:26;;;;;;;2.40;1.67;;;26.60;99.90;;;;;;5047199;28;20483;-80
2023/04/22 09:22:53;;;;;;;2.53;1.60;;;26.60;99.90;;;;;;5029296;28;20461;-79
2023/04/22 09:25:23;;;;;;;2.10;1.40;;;26.50;99.90;;;;;;5027118;28;20483;-79
2023/04/22 09:27:50;;;;;;;2.40;1.80;;;27.00;99.90;;;;;;5043081;28;21015;-78
2023/04/22 09:30:22;;;;;;;2.20;1.40;;;27.80;99.90;;;;;;5023656;28;20449;-80
2023/04/22 09:32:54;;;;;;;3.03;1.60;;;28.50;99.90;;;;;;5030992;28;20473;-78
2023/04/22 09:35:28;;;;;;;2.40;1.60;;;29.50;99.90;;;;;;5024202;28;20476;-79
2023/04/22 09:37:55;;;;;;;3.73;1.87;;;29.80;99.90;;;;;;5034790;28;20449;-80
2023/04/22 09:40:25;;;;;;;2.17;1.40;;;29.80;99.90;;;;;;5034822;28;20456;-79
2023/04/22 09:42:54;;;;;;;4.30;2.37;;;30.40;99.90;;;;;;5027242;28;20539;-78
2023/04/22 09:45:29;;;;;;;2.43;1.50;;;31.10;99.90;;;;;;5038244;28;20464;-79
2023/04/22 09:47:56;;;;;;;4.00;1.60;;;32.20;99.90;;;;;;5032244;28;20548;-78
2023/04/22 09:50:26;;;;;;;1.83;1.37;;;31.10;99.90;;;;;;5033626;28;20448;-79
2023/04/22 09:52:58;;;;;;;3.10;1.77;;;31.40;99.90;;;;;;5025809;28;20464;-78
2023/04/22 09:55:28;;;;;;;2.60;1.60;;;31.10;99.90;;;;;;5018719;28;20978;-78
2023/04/22 09:57:57;;;;;;;2.93;1.60;;;32.10;99.90;;;;;;5018557;28;20476;-79
2023/04/22 10:00:27;;;;;;;2.00;1.43;;;32.80;99.90;;;;;;5051447;28;20449;-78
2023/04/22 10:02:54;;;;;;;2.50;1.60;;;33.40;99.90;;;;;;5038307;28;20504;-79
2023/04/22 10:05:20;;;;;;;2.20;1.33;;;32.90;99.90;;;;;;5031613;28;20487;-79
2023/04/22 10:07:47;;;;;;;2.73;1.40;;;33.80;99.90;;;;;;5052637;28;20992;-78
2023/04/22 10:10:14;;;;;;;4.13;1.60;;;34.10;99.90;;;;;;5037875;28;20445;-79
2023/04/22 10:12:43;;;;;;;3.03;1.53;;;33.20;99.90;;;;;;5035110;28;20484;-78
2023/04/22 10:15:10;;;;;;;3.60;1.53;;;33.90;99.90;;;;;;5026226;28;20473;-80
2023/04/22 10:17:38;;;;;;;2.50;1.50;;;34.70;99.90;;;;;;5049694;28;20890;-77
2023/04/22 10:20:12;;;;;;;3.00;1.33;;;35.10;99.90;;;;;;5037904;28;21018;-80
2023/04/22 10:22:41;;;;;;;2.40;1.53;;;33.40;99.90;;;;;;5038214;28;20831;-79
2023/04/22 10:25:12;;;;;;;2.50;1.47;;;31.90;99.90;;;;;;5032844;28;20464;-78
2023/04/22 10:27:40;;;;;;;2.43;1.43;;;30.80;99.90;;;;;;5030811;28;20467;-79
2023/04/22 10:30:10;;;;;;;2.40;1.53;;;30.60;99.90;;;;;;5024049;28;20453;-80
2023/04/22 10:32:37;;;;;;;2.30;1.40;;;30.90;99.90;;;;;;5042894;28;20460;-78
2023/04/22 10:35:10;;;;;;;4.43;1.83;;;30.80;99.90;;;;;;5034896;28;20483;-78
2023/04/22 10:37:38;;;;;;;4.00;1.60;;;31.70;99.90;;;;;;5026433;28;20449;-77
2023/04/22 10:40:07;;;;;;;2.30;1.33;;;33.60;99.90;;;;;;5012360;28;20611;-79
2023/04/22 10:42:35;;;;;;;3.20;1.80;;;34.90;99.90;;;;;;5033202;28;21039;-79
2023/04/22 10:45:03;;;;;;;3.17;1.67;;;35.30;99.90;;;;;;5029420;28;21028;-78
2023/04/22 10:47:34;;;;;;;4.00;1.50;;;36.10;99.90;;;;;;5031265;28;20449;-80
2023/04/22 10:50:16;;;;;;;2.50;1.37;;;37.10;99.90;;;;;;5023473;28;20809;-78
2023/04/22 10:52:46;;;;;;;4.43;1.77;;;37.90;99.90;;;;;;5013478;28;21028;-77
2023/04/22 10:55:13;;;;;;;2.20;1.50;;;37.90;99.90;;;;;;5028990;28;20476;-77
2023/04/22 10:57:42;;;;;;;2.97;1.53;;;38.20;99.90;;;;;;5028352;28;20455;-81
2023/04/22 11:00:41;;;;;;;2.60;1.90;;;38.20;99.90;;;;;;5035155;28;20489;-78
2023/04/22 11:03:15;;;;;;;2.17;1.30;;;36.30;99.90;;;;;;5024325;28;20438;-78
2023/04/22 11:05:42;;;;;;;2.63;1.53;;;36.30;99.90;;;;;;5019217;28;20459;-78
2023/04/22 11:08:15;;;;;;;2.20;1.53;;;36.40;99.90;;;;;;5032045;28;20945;-79
2023/04/22 11:10:43;;;;;;;3.60;1.70;;;37.20;99.90;;;;;;5026316;28;20480;-80
2023/04/22 11:15:41;;;;;;;3.57;2.10;;;35.60;99.90;;;;;;5018864;23;20501;-80
2023/04/22 11:18:17;;;;;;;4.23;1.93;;;34.40;99.90;;;;;;5011717;28;20445;-79
2023/04/22 11:20:44;;;;;;;3.30;1.57;;;33.90;99.90;;;;;;5017050;28;20891;-78
2023/04/22 11:23:11;;;;;;;2.80;1.90;;;32.80;99.90;;;;;;5012054;28;20454;-78
2023/04/22 11:25:37;;;;;;;3.07;1.50;;;34.00;99.90;;;;;;5018777;28;20557;-79
2023/04/22 11:28:04;;;;;;;3.00;1.63;;;34.00;99.90;;;;;;5011496;28;20464;-79
2023/04/22 11:30:31;;;;;;;3.30;1.90;;;31.60;99.90;;;;;;5012096;28;20441;-79
2023/04/22 11:33:00;;;;;;;2.87;1.87;;;31.80;99.90;;;;;;5012208;28;20902;-79
2023/04/22 11:35:30;;;;;;;4.07;1.50;;;31.80;99.90;;;;;;5016551;28;20476;-79
2023/04/22 11:37:59;;;;;;;3.90;1.97;;;31.70;99.90;;;;;;5012995;28;20472;-80
2023/04/22 11:40:28;;;;;;;3.00;1.80;;;31.80;99.90;;;;;;5020133;28;20484;-80
2023/04/22 11:42:56;;;;;;;2.30;1.37;;;31.00;99.90;;;;;;5018508;28;20549;-81
2023/04/22 11:45:23;;;;;;;5.30;1.70;;;31.20;99.90;;;;;;5013193;28;20473;-80
2023/04/22 11:47:50;;;;;;;3.03;1.70;;;31.60;99.90;;;;;;5015672;28;20453;-80
2023/04/22 11:50:18;;;;;;;3.20;1.67;;;31.60;99.90;;;;;;5023157;28;20438;-80
2023/04/22 11:52:51;;;;;;;3.00;1.90;;;31.20;99.90;;;;;;5019707;28;20461;-81
2023/04/22 11:55:21;;;;;;;3.23;1.97;;;30.70;99.90;;;;;;5020429;28;20473;-80
2023/04/22 11:57:54;;;;;;;2.73;1.70;;;29.20;99.90;;;;;;5017094;28;20453;-80
2023/04/22 12:00:21;;;;;;;2.30;1.70;;;28.50;99.90;;;;;;5022507;28;20557;-80
2023/04/22 12:02:59;;;;;;;3.40;2.13;;;27.20;99.90;;;;;;5018822;28;20461;-79
2023/04/22 12:05:36;;;;;;;3.43;2.00;;;27.20;99.90;;;;;;5013315;28;20464;-78
2023/04/22 12:08:08;;;;;;;3.73;1.93;;;27.80;99.90;;;;;;5025853;28;20443;-77
2023/04/22 12:10:39;;;;;;;3.13;1.80;;;28.40;99.90;;;;;;5017981;28;21335;-79
2023/04/22 12:13:06;;;;;;;4.47;2.43;;;28.40;99.90;;;;;;5011762;28;20461;-79
2023/04/22 12:15:41;;;;;;;5.87;2.00;;;27.80;99.90;;;;;;5013784;28;20483;-78
2023/04/22 12:18:08;;;;;;;3.30;1.60;;;27.50;99.90;;;;;;5012933;28;20449;-79
2023/04/22 12:20:35;;;;;;;5.13;2.10;;;28.40;99.90;;;;;;5019481;28;20487;-78
2023/04/22 12:23:02;;;;;;;3.70;1.80;;;30.20;99.90;;;;;;5019002;28;20459;-79
2023/04/22 12:25:33;;;;;;;2.20;1.57;;;31.80;99.90;;;;;;5014606;28;20476;-79
2023/04/22 12:28:00;;;;;;;3.80;1.90;;;32.60;99.90;;;;;;5012984;28;20519;-79
2023/04/22 12:30:27;;;;;;;3.37;1.70;;;31.20;99.90;;;;;;5016792;28;20464;-79
2023/04/22 12:32:54;;;;;;;4.10;2.10;;;30.60;99.90;;;;;;5017806;28;20454;-79
2023/04/22 12:35:21;;;;;;;2.23;1.60;;;30.10;99.90;;;;;;5013390;28;20484;-79
2023/04/22 12:37:48;;;;;;;3.50;1.60;;;30.10;99.90;;;;;;5018620;28;21112;-80
2023/04/22 12:40:15;;;;;;;2.40;1.70;;;29.20;99.90;;;;;;5013135;28;20481;-78
2023/04/22 12:42:43;;;;;;;2.87;1.73;;;28.10;99.90;;;;;;5021383;28;20464;-78
2023/04/22 12:45:10;;;;;;;2.80;1.80;;;27.10;99.90;;;;;;5013654;28;20466;-77
2023/04/22 12:47:37;;;;;;;2.53;1.70;;;26.60;99.90;;;;;;5015530;28;20442;-81
2023/04/22 12:50:06;;;;;;;4.17;2.47;;;25.80;99.90;;;;;;5009761;28;20536;-76
2023/04/22 12:52:34;;;;;;;2.80;2.30;;;24.50;99.90;;;;;;5010210;28;20450;-79
2023/04/22 12:55:01;;;;;;;4.43;2.33;;;23.50;99.90;;;;;;5021467;28;20871;-82
2023/04/22 12:57:28;;;;;;;6.17;2.30;;;23.40;99.90;;;;;;5012647;28;20922;-80